createdAt,value
2019-03-18T00:02:26.931Z,99.90
2019-03-18T00:04:58.591Z,99.90
2019-03-18T00:07:42.911Z,99.90
2019-03-18T00:10:13.263Z,99.90
2019-03-18T00:12:45.709Z,99.90
2019-03-18T00:15:15.924Z,99.90
2019-03-18T00:17:52.395Z,99.90
2019-03-18T00:20:22.915Z,99.90
2019-03-18T00:22:53.288Z,99.90
2019-03-18T00:25:23.384Z,99.90
2019-03-18T00:27:55.440Z,99.90
2019-03-18T00:30:25.531Z,99.90
2019-03-18T00:32:55.614Z,99.90
2019-03-18T00:35:28.942Z,99.90
2019-03-18T00:38:00.080Z,99.90
2019-03-18T00:40:30.147Z,99.90
2019-03-18T00:43:00.231Z,99.90
2019-03-18T00:45:31.277Z,99.90
2019-03-18T00:48:03.307Z,99.90
2019-03-18T00:50:33.399Z,99.90
2019-03-18T00:53:03.515Z,99.90
2019-03-18T00:55:34.727Z,99.90
2019-03-18T00:58:04.835Z,99.90
2019-03-18T01:01:03.579Z,99.90
2019-03-18T01:03:33.668Z,99.90
2019-03-18T01:06:03.872Z,99.90
2019-03-18T01:08:33.963Z,99.90
2019-03-18T01:11:07.056Z,99.90
2019-03-18T01:13:37.127Z,99.90
2019-03-18T01:16:07.675Z,99.90
2019-03-18T01:18:37.753Z,99.90
2019-03-18T01:21:09.151Z,99.90
2019-03-18T01:23:45.095Z,99.90
2019-03-18T01:26:15.201Z,99.90
2019-03-18T01:28:47.375Z,99.90
2019-03-18T01:31:26.735Z,99.90
2019-03-18T01:33:58.797Z,99.90
2019-03-18T01:36:29.167Z,99.90
2019-03-18T01:38:59.297Z,99.90
2019-03-18T01:41:29.367Z,99.90
2019-03-18T01:43:59.468Z,99.90
2019-03-18T01:46:29.545Z,99.90
2019-03-18T01:49:06.387Z,99.90
2019-03-18T01:51:40.508Z,99.90
2019-03-18T01:54:11.570Z,99.90
2019-03-18T01:56:41.640Z,99.90
2019-03-18T01:59:11.794Z,99.90
2019-03-18T02:01:44.551Z,99.90
2019-03-18T02:04:14.619Z,99.90
2019-03-18T02:06:44.719Z,99.90
2019-03-18T02:09:14.803Z,99.90
2019-03-18T02:11:45.414Z,99.90
2019-03-18T02:14:18.525Z,99.90
2019-03-18T02:16:49.581Z,99.90
2019-03-18T02:19:21.628Z,99.90
2019-03-18T02:22:02.103Z,99.90
2019-03-18T02:24:36.332Z,99.90
2019-03-18T02:27:09.111Z,99.90
2019-03-18T02:29:39.199Z,99.90
2019-03-18T02:32:12.125Z,99.90
2019-03-18T02:34:44.141Z,99.90
2019-03-18T02:37:15.184Z,99.90
2019-03-18T02:42:42.042Z,99.90
2019-03-18T02:45:14.419Z,99.90
2019-03-18T02:47:45.487Z,99.90
2019-03-18T02:50:16.604Z,99.90
2019-03-18T02:52:53.700Z,99.90
2019-03-18T02:55:31.801Z,99.90
2019-03-18T02:58:02.932Z,99.90
2019-03-18T03:00:36.047Z,99.90
2019-03-18T03:03:12.093Z,99.90
2019-03-18T03:05:52.033Z,99.90
2019-03-18T03:08:22.133Z,99.90
2019-03-18T03:10:56.409Z,99.90
2019-03-18T03:13:26.747Z,99.90
2019-03-18T03:15:57.848Z,99.90
2019-03-18T03:18:28.935Z,99.90
2019-03-18T03:20:59.005Z,99.90
2019-03-18T03:23:30.021Z,99.90
2019-03-18T03:26:01.063Z,99.90
2019-03-18T03:28:31.218Z,99.90
2019-03-18T03:31:04.375Z,99.90
2019-03-18T03:33:35.729Z,99.90
2019-03-18T03:36:08.069Z,99.90
2019-03-18T03:38:47.120Z,99.90
2019-03-18T03:41:18.753Z,99.90
2019-03-18T03:43:49.946Z,99.90
2019-03-18T03:46:21.992Z,99.90
2019-03-18T03:48:52.304Z,99.90
2019-03-18T03:51:29.207Z,99.90
2019-03-18T03:53:59.339Z,99.90
2019-03-18T03:56:37.438Z,99.90
2019-03-18T03:59:13.436Z,99.90
2019-03-18T04:01:55.453Z,99.90
2019-03-18T04:04:25.551Z,99.90
2019-03-18T04:06:58.257Z,99.90
2019-03-18T04:09:36.378Z,99.90
2019-03-18T04:12:11.426Z,99.90
2019-03-18T04:14:44.200Z,99.90
2019-03-18T04:17:15.233Z,99.90
2019-03-18T04:19:46.283Z,99.90
2019-03-18T04:22:22.293Z,99.90
2019-03-18T04:25:01.694Z,99.90
2019-03-18T04:27:31.761Z,99.90
2019-03-18T04:30:01.947Z,99.90
2019-03-18T04:32:39.888Z,99.90
2019-03-18T04:35:10.040Z,99.90
2019-03-18T04:37:42.092Z,99.90
2019-03-18T04:40:13.116Z,99.90
2019-03-18T04:42:45.179Z,99.90
2019-03-18T04:45:18.311Z,99.90
2019-03-18T04:47:48.464Z,99.90
2019-03-18T04:50:18.543Z,99.90
2019-03-18T04:52:51.275Z,99.90
2019-03-18T04:55:29.072Z,99.90
2019-03-18T04:58:00.301Z,99.90
2019-03-18T05:00:39.371Z,99.90
2019-03-18T05:03:15.331Z,99.90
2019-03-18T05:05:54.451Z,99.90
2019-03-18T05:08:25.615Z,99.90
2019-03-18T05:10:57.679Z,99.90
2019-03-18T05:13:32.791Z,99.90
2019-03-18T05:16:04.130Z,99.90
2019-03-18T05:18:42.052Z,99.90
2019-03-18T05:21:12.137Z,99.90
2019-03-18T05:23:43.207Z,99.90
2019-03-18T05:26:13.295Z,99.90
2019-03-18T05:28:50.154Z,99.90
2019-03-18T05:31:20.255Z,99.90
2019-03-18T05:33:50.599Z,99.90
2019-03-18T05:36:23.736Z,99.90
2019-03-18T05:38:53.888Z,99.90
2019-03-18T05:41:23.983Z,99.90
2019-03-18T05:43:59.921Z,99.90
2019-03-18T05:46:30.968Z,99.90
2019-03-18T05:49:01.055Z,99.90
2019-03-18T05:51:32.475Z,99.90
2019-03-18T05:54:02.707Z,99.90
2019-03-18T05:56:42.617Z,99.90
2019-03-18T05:59:13.639Z,99.90
2019-03-18T06:01:51.724Z,99.90
2019-03-18T06:04:25.973Z,99.90
2019-03-18T06:06:56.055Z,99.90
2019-03-18T06:09:31.992Z,99.90
2019-03-18T06:12:11.419Z,99.90
2019-03-18T06:14:41.583Z,99.90
2019-03-18T06:17:11.671Z,99.90
2019-03-18T06:19:41.746Z,99.90
2019-03-18T06:22:12.768Z,99.90
2019-03-18T06:24:42.851Z,99.90
2019-03-18T06:27:13.032Z,99.90
2019-03-18T06:29:45.076Z,99.90
2019-03-18T06:32:17.812Z,99.90
2019-03-18T06:34:47.897Z,99.90
2019-03-18T06:37:17.988Z,99.90
2019-03-18T06:39:50.071Z,99.90
2019-03-18T06:42:21.091Z,99.90
2019-03-18T06:44:56.256Z,99.90
2019-03-18T06:47:29.012Z,99.90
2019-03-18T06:49:59.073Z,99.90
2019-03-18T06:52:29.159Z,99.90
2019-03-18T06:55:01.181Z,99.90
2019-03-18T06:57:33.267Z,99.90
2019-03-18T07:00:17.139Z,99.90
2019-03-18T07:02:47.219Z,99.90
2019-03-18T07:05:18.258Z,99.90
2019-03-18T07:07:48.340Z,99.90
2019-03-18T07:10:18.411Z,99.90
2019-03-18T07:12:49.515Z,99.90
2019-03-18T07:15:26.540Z,99.90
2019-03-18T07:18:02.199Z,99.90
2019-03-18T07:20:32.292Z,99.90
2019-03-18T07:23:08.179Z,99.90
2019-03-18T07:25:46.252Z,99.90
2019-03-18T07:28:26.444Z,99.90
2019-03-18T07:30:56.513Z,99.90
2019-03-18T07:33:28.571Z,99.90
2019-03-18T07:36:00.472Z,99.90
2019-03-18T07:38:31.492Z,99.90
2019-03-18T07:41:02.326Z,99.90
2019-03-18T07:43:32.384Z,99.90
2019-03-18T07:46:02.482Z,99.90
2019-03-18T07:48:37.780Z,99.90
2019-03-18T07:51:09.762Z,99.90
2019-03-18T07:53:39.932Z,99.90
2019-03-18T07:56:10.016Z,99.90
2019-03-18T07:58:40.169Z,99.90
2019-03-18T08:01:12.916Z,99.90
2019-03-18T08:03:43.900Z,99.90
2019-03-18T08:06:14.124Z,99.90
2019-03-18T08:08:45.227Z,99.90
2019-03-18T08:11:15.296Z,99.90
2019-03-18T08:13:46.360Z,97.80
2019-03-18T08:16:17.456Z,95.40
2019-03-18T08:18:47.631Z,97.70
2019-03-18T08:21:17.744Z,98.00
2019-03-18T08:23:48.772Z,99.90
2019-03-18T08:26:19.812Z,98.70
2019-03-18T08:28:50.855Z,98.10
2019-03-18T08:31:21.904Z,92.40
2019-03-18T08:33:51.985Z,85.70
2019-03-18T08:36:23.983Z,79.40
2019-03-18T08:38:54.080Z,72.40
2019-03-18T08:41:25.128Z,74.10
2019-03-18T08:43:55.375Z,84.90
2019-03-18T08:46:25.534Z,93.00
2019-03-18T08:48:56.693Z,97.70
2019-03-18T08:51:28.711Z,99.90
2019-03-18T08:53:58.799Z,99.90
2019-03-18T08:56:29.783Z,99.90
2019-03-18T08:58:59.944Z,99.90
2019-03-18T09:01:30.997Z,99.90
2019-03-18T09:04:01.120Z,99.90
2019-03-18T09:06:31.243Z,99.90
2019-03-18T09:09:02.456Z,99.90
2019-03-18T09:11:32.557Z,99.90
2019-03-18T09:14:02.616Z,99.90
2019-03-18T09:16:32.691Z,99.90
2019-03-18T09:19:08.475Z,99.90
2019-03-18T09:21:35.855Z,99.90
2019-03-18T09:24:05.916Z,99.90
2019-03-18T09:26:36.243Z,99.90
2019-03-18T09:29:06.323Z,99.90
2019-03-18T09:31:38.066Z,99.90
2019-03-18T09:34:08.260Z,99.90
2019-03-18T09:36:39.320Z,99.90
2019-03-18T09:39:09.461Z,99.90
2019-03-18T09:41:40.504Z,99.90
2019-03-18T09:44:10.588Z,99.90
2019-03-18T09:46:40.688Z,99.90
2019-03-18T09:49:21.117Z,99.90
2019-03-18T09:51:42.528Z,99.90
2019-03-18T09:54:12.615Z,99.90
2019-03-18T09:56:43.704Z,99.90
2019-03-18T09:59:13.876Z,99.90
2019-03-18T10:01:44.584Z,99.90
2019-03-18T10:04:14.738Z,99.90
2019-03-18T10:06:44.846Z,99.90
2019-03-18T10:09:14.947Z,99.90
2019-03-18T10:11:48.076Z,99.90
2019-03-18T10:14:24.495Z,99.90
2019-03-18T10:16:55.828Z,99.90
2019-03-18T10:19:33.554Z,99.90
2019-03-18T10:21:57.676Z,99.90
2019-03-18T10:24:28.588Z,99.90
2019-03-18T10:27:00.696Z,99.90
2019-03-18T10:29:31.884Z,99.90
2019-03-18T10:32:03.951Z,99.90
2019-03-18T10:34:34.016Z,99.90
2019-03-18T10:37:05.017Z,99.90
2019-03-18T10:39:42.956Z,99.90
2019-03-18T10:42:14.980Z,95.40
2019-03-18T10:44:46.036Z,69.70
2019-03-18T10:47:16.128Z,61.40
2019-03-18T10:49:47.165Z,56.70
2019-03-18T10:52:17.266Z,53.10
2019-03-18T10:54:47.390Z,51.40
2019-03-18T10:57:18.460Z,48.80
2019-03-18T10:59:48.592Z,44.30
2019-03-18T11:02:19.632Z,43.00
2019-03-18T11:04:50.656Z,42.80
2019-03-18T11:07:20.849Z,42.20
2019-03-18T11:09:51.504Z,46.10
2019-03-18T11:12:26.263Z,48.80
2019-03-18T11:14:56.376Z,50.30
2019-03-18T11:17:26.469Z,46.60
2019-03-18T11:20:00.685Z,44.50
2019-03-18T11:22:30.841Z,46.90
2019-03-18T11:25:02.956Z,45.30
2019-03-18T11:27:34.608Z,46.40
2019-03-18T11:30:14.855Z,46.80
2019-03-18T11:32:45.936Z,49.10
2019-03-18T11:35:16.013Z,52.60
2019-03-18T11:37:46.240Z,54.60
2019-03-18T11:40:34.492Z,56.40
2019-03-18T11:43:04.812Z,57.40
2019-03-18T11:45:36.900Z,58.60
2019-03-18T11:48:17.472Z,59.70
2019-03-18T11:50:53.404Z,60.40
2019-03-18T11:53:24.477Z,62.80
2019-03-18T11:55:54.923Z,64.00
2019-03-18T11:58:27.047Z,64.80
2019-03-18T12:00:57.128Z,68.10
2019-03-18T12:03:29.123Z,70.40
2019-03-18T12:06:03.228Z,76.80
2019-03-18T12:08:33.400Z,85.70
2019-03-18T12:11:03.575Z,90.40
2019-03-18T12:13:34.548Z,93.60
2019-03-18T12:16:05.619Z,96.80
2019-03-18T12:18:41.817Z,97.40
2019-03-18T12:21:15.866Z,99.90
2019-03-18T12:23:47.233Z,99.90
2019-03-18T12:26:23.324Z,99.90
2019-03-18T12:28:53.420Z,99.90
2019-03-18T12:31:23.487Z,99.90
2019-03-18T12:33:53.592Z,99.90
2019-03-18T12:36:23.677Z,99.90
2019-03-18T12:38:54.852Z,99.90
2019-03-18T12:41:26.912Z,99.90
2019-03-18T12:43:57.014Z,80.30
2019-03-18T12:46:28.084Z,73.30
2019-03-18T12:49:04.188Z,69.60
2019-03-18T12:51:34.268Z,72.50
2019-03-18T12:54:04.504Z,76.20
2019-03-18T12:56:37.656Z,86.90
2019-03-18T12:59:07.778Z,92.70
2019-03-18T13:01:37.861Z,91.60
2019-03-18T13:04:07.936Z,95.00
2019-03-18T13:06:42.101Z,98.00
2019-03-18T13:09:13.168Z,98.60
2019-03-18T13:11:44.212Z,99.90
2019-03-18T13:14:15.232Z,99.90
2019-03-18T13:16:47.300Z,99.90
2019-03-18T13:19:25.088Z,99.90
2019-03-18T13:21:55.164Z,99.90
2019-03-18T13:24:25.244Z,99.90
2019-03-18T13:26:58.685Z,97.70
2019-03-18T13:29:28.888Z,95.10
2019-03-18T13:31:59.112Z,93.00
2019-03-18T13:34:29.216Z,90.00
2019-03-18T13:37:00.232Z,84.20
2019-03-18T13:39:31.248Z,70.60
2019-03-18T13:42:01.320Z,67.20
2019-03-18T13:44:31.500Z,62.40
2019-03-18T13:47:07.583Z,60.80
2019-03-18T13:49:44.996Z,62.30
2019-03-18T13:52:15.096Z,65.20
2019-03-18T13:54:46.056Z,67.20
2019-03-18T13:57:16.168Z,70.60
2019-03-18T13:59:47.196Z,71.30
2019-03-18T14:02:17.272Z,73.10
2019-03-18T14:04:49.352Z,73.00
2019-03-18T14:07:22.517Z,74.60
2019-03-18T14:09:59.548Z,71.90
2019-03-18T14:12:32.290Z,73.70
2019-03-18T14:15:18.941Z,71.90
2019-03-18T14:17:50.220Z,67.00
2019-03-18T14:20:28.988Z,60.50
2019-03-18T14:22:59.084Z,58.70
2019-03-18T14:25:35.001Z,59.70
2019-03-18T14:28:05.997Z,56.90
2019-03-18T14:30:36.093Z,57.20
2019-03-18T14:33:07.184Z,56.70
2019-03-18T14:35:41.401Z,55.00
2019-03-18T14:38:11.529Z,50.80
2019-03-18T14:40:42.545Z,47.20
2019-03-18T14:43:12.636Z,47.30
2019-03-18T14:45:43.708Z,48.50
2019-03-18T14:48:14.724Z,49.20
2019-03-18T14:50:47.544Z,44.40
2019-03-18T14:53:17.634Z,43.80
2019-03-18T14:55:48.684Z,46.40
2019-03-18T14:58:20.696Z,48.10
2019-03-18T15:00:51.760Z,51.00
2019-03-18T15:03:21.855Z,53.10
2019-03-18T15:05:56.565Z,54.60
2019-03-18T15:08:27.592Z,55.90
2019-03-18T15:11:02.619Z,57.00
2019-03-18T15:13:32.679Z,58.30
2019-03-18T15:16:04.764Z,58.60
2019-03-18T15:18:34.833Z,58.40
2019-03-18T15:21:04.910Z,58.50
2019-03-18T15:23:34.996Z,58.70
2019-03-18T15:26:05.391Z,58.50
2019-03-18T15:28:41.542Z,58.80
2019-03-18T15:31:11.596Z,59.40
2019-03-18T15:33:42.693Z,60.70
2019-03-18T15:36:14.162Z,60.90
2019-03-18T15:38:50.176Z,60.60
2019-03-18T15:41:22.242Z,61.90
2019-03-18T15:44:00.078Z,62.40
2019-03-18T15:46:41.129Z,62.70
2019-03-18T15:49:14.349Z,60.70
2019-03-18T15:51:44.440Z,61.50
2019-03-18T15:54:16.501Z,60.30
2019-03-18T15:56:47.581Z,59.20
2019-03-18T15:59:17.668Z,57.90
2019-03-18T16:01:48.133Z,59.50
2019-03-18T16:04:21.406Z,56.00
2019-03-18T16:06:51.495Z,52.10
2019-03-18T16:09:24.604Z,49.20
2019-03-18T16:11:54.712Z,48.10
2019-03-18T16:14:25.158Z,46.70
2019-03-18T16:17:01.965Z,45.50
2019-03-18T16:19:28.245Z,47.20
2019-03-18T16:21:59.318Z,50.10
2019-03-18T16:24:29.413Z,51.50
2019-03-18T16:27:06.308Z,52.90
2019-03-18T16:29:36.364Z,52.70
2019-03-18T16:32:11.557Z,52.10
2019-03-18T16:34:41.213Z,54.10
2019-03-18T16:37:11.352Z,55.00
2019-03-18T16:39:45.580Z,57.20
2019-03-18T16:42:16.684Z,58.10
2019-03-18T16:44:52.560Z,60.40
2019-03-18T16:47:22.719Z,63.70
2019-03-18T16:49:52.804Z,67.70
2019-03-18T16:52:34.927Z,72.10
2019-03-18T16:54:56.648Z,76.90
2019-03-18T16:57:29.817Z,83.40
2019-03-18T17:00:16.409Z,92.20
2019-03-18T17:02:48.480Z,98.70
2019-03-18T17:05:18.629Z,99.90
2019-03-18T17:07:49.631Z,99.90
2019-03-18T17:10:19.781Z,99.90
2019-03-18T17:12:52.609Z,99.90
2019-03-18T17:15:24.608Z,99.90
2019-03-18T17:17:55.704Z,99.90
2019-03-18T17:20:25.749Z,99.90
2019-03-18T17:22:56.829Z,99.90
2019-03-18T17:25:30.316Z,99.90
2019-03-18T17:28:00.456Z,99.90
2019-03-18T17:30:34.655Z,99.90
2019-03-18T17:33:10.692Z,99.90
2019-03-18T17:35:43.966Z,99.90
2019-03-18T17:38:14.044Z,99.90
2019-03-18T17:40:48.628Z,99.90
2019-03-18T17:43:18.704Z,99.90
2019-03-18T17:45:48.806Z,99.90
2019-03-18T17:48:18.884Z,99.90
2019-03-18T17:50:49.006Z,99.90
2019-03-18T17:53:20.032Z,99.90
2019-03-18T17:55:51.193Z,99.90
2019-03-18T17:58:22.227Z,99.90
2019-03-18T18:01:00.064Z,99.90
2019-03-18T18:03:30.137Z,99.90
2019-03-18T18:06:00.233Z,99.90
2019-03-18T18:08:30.328Z,99.90
2019-03-18T18:11:00.458Z,99.90
2019-03-18T18:13:39.725Z,99.90
2019-03-18T18:16:09.824Z,99.90
2019-03-18T18:18:49.440Z,99.90
2019-03-18T18:21:20.532Z,99.90
2019-03-18T18:23:50.631Z,99.90
2019-03-18T18:26:27.480Z,99.90
2019-03-18T18:28:57.545Z,99.90
2019-03-18T18:31:27.624Z,99.90
2019-03-18T18:34:03.728Z,99.90
2019-03-18T18:36:39.703Z,99.90
2019-03-18T18:39:09.836Z,99.90
2019-03-18T18:41:41.872Z,99.90
2019-03-18T18:44:11.940Z,99.90
2019-03-18T18:46:45.076Z,99.90
2019-03-18T18:49:15.252Z,99.90
2019-03-18T18:51:45.405Z,99.90
2019-03-18T18:54:15.488Z,99.90
2019-03-18T18:56:46.580Z,99.90
2019-03-18T18:59:19.403Z,99.90
2019-03-18T19:01:50.982Z,99.90
2019-03-18T19:04:22.032Z,99.90
2019-03-18T19:06:59.048Z,99.90
2019-03-18T19:09:31.770Z,99.90
2019-03-18T19:12:01.916Z,99.90
2019-03-18T19:14:44.133Z,99.90
2019-03-18T19:17:15.144Z,99.90
2019-03-18T19:19:47.236Z,99.90
2019-03-18T19:22:18.256Z,99.90
2019-03-18T19:24:48.363Z,99.90
2019-03-18T19:27:19.432Z,99.90
2019-03-18T19:29:49.528Z,99.90
2019-03-18T19:32:30.683Z,99.90
2019-03-18T19:35:00.769Z,99.90
2019-03-18T19:37:31.781Z,99.90
2019-03-18T19:40:01.872Z,99.90
2019-03-18T19:42:32.944Z,99.90
2019-03-18T19:45:04.524Z,99.90
2019-03-18T19:47:34.620Z,99.90
2019-03-18T19:50:11.600Z,99.90
2019-03-18T19:52:43.657Z,99.90
2019-03-18T19:55:14.134Z,99.90
2019-03-18T19:57:44.213Z,99.90
2019-03-18T20:00:21.668Z,99.90
2019-03-18T20:02:51.772Z,99.90
2019-03-18T20:05:21.934Z,99.90
2019-03-18T20:07:53.116Z,99.90
2019-03-18T20:10:24.217Z,99.90
2019-03-18T20:12:54.485Z,99.90
2019-03-18T20:15:24.568Z,99.90
2019-03-18T20:17:55.603Z,99.90
2019-03-18T20:20:25.793Z,99.90
2019-03-18T20:23:04.737Z,99.90
2019-03-18T20:25:37.840Z,99.90
2019-03-18T20:28:07.924Z,99.90
2019-03-18T20:30:38.197Z,99.90
2019-03-18T20:33:09.836Z,99.90
2019-03-18T20:35:39.920Z,99.90
2019-03-18T20:38:10.181Z,99.90
2019-03-18T20:40:40.468Z,99.90
2019-03-18T20:43:11.757Z,99.90
2019-03-18T20:45:44.000Z,99.90
2019-03-18T20:48:17.260Z,99.90
2019-03-18T20:50:47.332Z,99.90
2019-03-18T20:53:18.703Z,99.90
2019-03-18T20:55:49.888Z,99.90
2019-03-18T20:58:21.976Z,99.90
2019-03-18T21:00:53.122Z,99.90
2019-03-18T21:03:23.228Z,99.90
2019-03-18T21:05:53.456Z,99.90
2019-03-18T21:08:23.744Z,99.90
2019-03-18T21:10:54.592Z,99.90
2019-03-18T21:13:24.708Z,99.90
2019-03-18T21:15:54.772Z,99.90
2019-03-18T21:18:24.861Z,99.90
2019-03-18T21:20:55.904Z,99.90
2019-03-18T21:23:31.698Z,99.90
2019-03-18T21:26:01.856Z,99.90
2019-03-18T21:28:40.783Z,99.90
2019-03-18T21:31:06.760Z,99.90
2019-03-18T21:33:38.745Z,99.90
2019-03-18T21:36:09.836Z,99.90
2019-03-18T21:38:40.872Z,99.90
2019-03-18T21:41:16.804Z,99.90
2019-03-18T21:43:49.955Z,99.90
2019-03-18T21:46:20.946Z,99.90
2019-03-18T21:48:52.032Z,99.90
2019-03-18T21:51:22.140Z,99.90
2019-03-18T21:53:57.966Z,99.90
2019-03-18T21:56:28.149Z,99.90
2019-03-18T21:59:02.016Z,99.90
2019-03-18T22:01:32.180Z,99.90
2019-03-18T22:04:02.256Z,99.90
2019-03-18T22:06:32.364Z,99.90
2019-03-18T22:09:06.941Z,99.90
2019-03-18T22:11:37.077Z,99.90
2019-03-18T22:14:09.060Z,99.90
2019-03-18T22:16:42.352Z,99.90
2019-03-18T22:19:12.441Z,99.90
2019-03-18T22:21:42.548Z,99.90
2019-03-18T22:24:20.601Z,99.90
2019-03-18T22:26:51.256Z,99.90
2019-03-18T22:29:21.412Z,99.90
2019-03-18T22:32:00.380Z,99.90
2019-03-18T22:34:30.513Z,99.90
2019-03-18T22:37:00.666Z,99.90
2019-03-18T22:39:31.708Z,99.90
2019-03-18T22:42:01.753Z,99.90
2019-03-18T22:44:31.884Z,99.90
2019-03-18T22:47:07.009Z,99.90
2019-03-18T22:49:38.060Z,99.90
2019-03-18T22:52:11.820Z,99.90
2019-03-18T22:54:41.913Z,99.90
2019-03-18T22:57:12.206Z,99.90
2019-03-18T22:59:44.812Z,99.90
2019-03-18T23:02:15.268Z,99.90
2019-03-18T23:04:46.378Z,99.90
2019-03-18T23:07:18.405Z,99.90
2019-03-18T23:09:55.400Z,99.90
2019-03-18T23:12:25.644Z,99.90
2019-03-18T23:14:55.738Z,99.90
2019-03-18T23:17:26.864Z,99.90
2019-03-18T23:19:57.945Z,99.90
2019-03-18T23:22:28.056Z,99.90
2019-03-18T23:25:06.941Z,99.90
2019-03-18T23:27:30.943Z,99.90
2019-03-18T23:30:01.989Z,99.90
2019-03-18T23:32:32.112Z,99.90
2019-03-18T23:35:02.212Z,99.90
2019-03-18T23:37:32.320Z,99.90
2019-03-18T23:40:02.488Z,99.90
2019-03-18T23:42:32.684Z,99.90
2019-03-18T23:45:02.854Z,99.90
2019-03-18T23:47:34.161Z,99.90
2019-03-18T23:50:07.367Z,99.90
2019-03-18T23:52:39.456Z,99.90
2019-03-18T23:55:19.016Z,99.90
2019-03-18T23:57:43.258Z,99.90
